createdAt,value
2023-03-15T00:01:37.410Z,80.68
2023-03-15T00:03:44.424Z,85.28
2023-03-15T00:05:53.247Z,84.72
2023-03-15T00:08:00.185Z,78.93
2023-03-15T00:10:07.944Z,85.95
2023-03-15T00:12:14.954Z,86.30
2023-03-15T00:14:22.344Z,90.43
2023-03-15T00:16:31.017Z,91.03
2023-03-15T00:18:38.135Z,84.55
2023-03-15T00:20:45.318Z,90.20
2023-03-15T00:22:52.551Z,92.88
2023-03-15T00:24:59.527Z,89.78
2023-03-15T00:27:07.068Z,88.13
2023-03-15T00:29:13.944Z,97.03
2023-03-15T00:31:23.396Z,88.05
2023-03-15T00:33:35.975Z,87.75
2023-03-15T00:35:44.517Z,92.32
2023-03-15T00:37:51.732Z,96.43
2023-03-15T00:39:58.964Z,111.97
2023-03-15T00:42:07.840Z,119.20
2023-03-15T00:44:15.018Z,119.35
2023-03-15T00:46:22.592Z,128.88
2023-03-15T00:48:32.066Z,151.63
2023-03-15T00:50:39.236Z,140.90
2023-03-15T00:52:46.515Z,136.77
2023-03-15T00:54:56.560Z,131.27
2023-03-15T00:57:04.506Z,134.85
2023-03-15T00:59:11.382Z,173.45
2023-03-15T01:01:20.070Z,127.47
2023-03-15T01:03:26.974Z,110.30
2023-03-15T01:05:35.951Z,109.25
2023-03-15T01:07:43.284Z,113.18
2023-03-15T01:09:50.518Z,120.53
2023-03-15T01:11:57.387Z,135.23
2023-03-15T01:14:06.159Z,105.13
2023-03-15T01:16:15.455Z,102.22
2023-03-15T01:18:22.825Z,101.68
2023-03-15T01:20:29.753Z,91.95
2023-03-15T01:22:38.622Z,93.22
2023-03-15T01:24:46.929Z,93.03
2023-03-15T01:26:54.063Z,93.80
2023-03-15T01:29:01.499Z,102.38
2023-03-15T01:31:09.708Z,91.57
2023-03-15T01:33:16.577Z,87.03
2023-03-15T01:35:23.706Z,85.65
2023-03-15T01:37:30.634Z,91.72
2023-03-15T01:39:40.687Z,87.43
2023-03-15T01:41:48.171Z,93.60
2023-03-15T01:43:56.581Z,91.82
2023-03-15T01:46:35.268Z,92.03
2023-03-15T01:49:08.507Z,89.15
2023-03-15T01:51:24.484Z,83.25
2023-03-15T01:53:33.614Z,81.05
2023-03-15T01:55:42.944Z,81.35
2023-03-15T01:57:57.022Z,80.28
2023-03-15T02:00:12.916Z,78.32
2023-03-15T02:02:26.496Z,74.35
2023-03-15T02:04:37.522Z,71.40
2023-03-15T02:06:47.633Z,66.85
2023-03-15T02:08:57.993Z,75.13
2023-03-15T02:11:10.128Z,71.30
2023-03-15T02:13:20.188Z,69.65
2023-03-15T02:15:27.211Z,67.22
2023-03-15T02:17:42.018Z,71.55
2023-03-15T02:19:56.262Z,68.00
2023-03-15T02:22:13.379Z,58.70
2023-03-15T02:24:32.386Z,62.85
2023-03-15T02:26:49.041Z,54.33
2023-03-15T02:28:58.069Z,52.70
2023-03-15T02:31:05.252Z,51.28
2023-03-15T02:33:17.501Z,51.72
2023-03-15T02:35:28.724Z,50.25
2023-03-15T02:38:12.260Z,52.45
2023-03-15T02:40:30.549Z,46.38
2023-03-15T02:42:37.479Z,46.45
2023-03-15T02:44:48.036Z,49.47
2023-03-15T02:46:58.190Z,48.08
2023-03-15T02:49:05.824Z,50.20
2023-03-15T02:51:23.103Z,48.67
2023-03-15T02:53:31.972Z,40.67
2023-03-15T02:55:38.949Z,39.97
2023-03-15T02:57:46.234Z,40.92
2023-03-15T02:59:56.078Z,43.33
2023-03-15T03:02:03.425Z,45.33
2023-03-15T03:04:10.650Z,38.05
2023-03-15T03:06:19.574Z,41.13
2023-03-15T03:08:27.267Z,47.03
2023-03-15T03:10:34.547Z,45.50
2023-03-15T03:12:41.632Z,41.20
2023-03-15T03:14:49.067Z,44.35
2023-03-15T03:17:00.649Z,42.15
2023-03-15T03:19:07.881Z,31.83
2023-03-15T03:21:15.830Z,41.90
2023-03-15T03:23:23.418Z,42.00
2023-03-15T03:25:30.394Z,39.35
2023-03-15T03:27:38.807Z,32.88
2023-03-15T03:29:48.442Z,41.15
2023-03-15T03:31:56.343Z,37.05
2023-03-15T03:34:05.005Z,32.97
2023-03-15T03:36:14.184Z,29.75
2023-03-15T03:38:21.186Z,33.05
2023-03-15T03:40:34.437Z,27.58
2023-03-15T03:42:43.613Z,26.73
2023-03-15T03:44:51.316Z,34.45
2023-03-15T03:46:59.264Z,33.42
2023-03-15T03:49:09.752Z,28.45
2023-03-15T03:51:16.744Z,32.70
2023-03-15T03:53:23.829Z,33.17
2023-03-15T03:55:30.851Z,32.00
2023-03-15T03:57:37.520Z,30.77
2023-03-15T03:59:46.751Z,28.77
2023-03-15T04:01:53.781Z,31.83
2023-03-15T04:04:00.958Z,28.58
2023-03-15T04:06:10.353Z,26.63
2023-03-15T04:08:21.467Z,25.73
2023-03-15T04:10:29.523Z,27.90
2023-03-15T04:12:36.364Z,25.60
2023-03-15T04:14:43.521Z,27.13
2023-03-15T04:16:51.730Z,26.83
2023-03-15T04:18:59.577Z,25.95
2023-03-15T04:21:14.741Z,22.85
2023-03-15T04:23:25.409Z,21.58
2023-03-15T04:25:39.812Z,23.63
2023-03-15T04:28:05.066Z,20.75
2023-03-15T04:30:28.019Z,22.42
2023-03-15T04:32:46.476Z,25.25
2023-03-15T04:35:01.182Z,27.15
2023-03-15T04:37:25.713Z,27.08
2023-03-15T04:39:59.011Z,23.00
2023-03-15T04:42:43.912Z,22.98
2023-03-15T04:45:14.098Z,23.42
2023-03-15T04:47:47.031Z,26.25
2023-03-15T04:50:16.896Z,29.90
2023-03-15T04:52:48.051Z,31.95
2023-03-15T04:55:14.118Z,27.73
2023-03-15T05:00:27.967Z,30.83
2023-03-15T05:02:53.074Z,23.40
2023-03-15T05:05:08.039Z,27.88
2023-03-15T05:07:32.473Z,27.25
2023-03-15T05:09:57.677Z,28.63
2023-03-15T05:12:22.881Z,27.75
2023-03-15T05:14:38.158Z,26.23
2023-03-15T05:17:03.510Z,24.38
2023-03-15T05:19:25.745Z,28.95
2023-03-15T05:21:41.732Z,26.08
2023-03-15T05:24:06.990Z,25.73
2023-03-15T05:26:38.597Z,26.42
2023-03-15T05:28:48.589Z,26.50
2023-03-15T05:31:14.776Z,23.23
2023-03-15T05:33:41.662Z,23.88
2023-03-15T05:36:01.968Z,25.02
2023-03-15T05:38:16.966Z,31.17
2023-03-15T05:40:48.208Z,32.08
2023-03-15T05:43:12.749Z,30.13
2023-03-15T05:45:37.774Z,25.70
2023-03-15T05:48:13.855Z,24.23
2023-03-15T05:50:36.397Z,26.67
2023-03-15T05:52:46.244Z,24.23
2023-03-15T05:55:31.313Z,26.75
2023-03-15T05:58:18.129Z,23.98
2023-03-15T06:00:51.979Z,22.77
2023-03-15T06:03:16.543Z,21.38
2023-03-15T06:05:31.790Z,21.02
2023-03-15T06:07:42.662Z,20.63
2023-03-15T06:09:49.939Z,21.90
2023-03-15T06:11:57.069Z,22.58
2023-03-15T06:14:05.788Z,21.05
2023-03-15T06:16:28.612Z,24.60
2023-03-15T06:18:37.716Z,23.33
2023-03-15T06:20:44.638Z,21.80
2023-03-15T06:22:53.816Z,23.63
2023-03-15T06:25:10.577Z,22.92
2023-03-15T06:27:17.380Z,24.08
2023-03-15T06:29:26.011Z,20.52
2023-03-15T06:31:36.212Z,26.67
2023-03-15T06:33:46.877Z,22.52
2023-03-15T06:35:53.757Z,22.02
2023-03-15T06:38:00.828Z,24.30
2023-03-15T06:40:10.677Z,27.63
2023-03-15T06:42:17.969Z,26.98
2023-03-15T06:44:26.421Z,21.20
2023-03-15T06:46:37.440Z,23.77
2023-03-15T06:48:46.976Z,26.42
2023-03-15T06:50:55.132Z,22.25
2023-03-15T06:53:02.580Z,23.80
2023-03-15T06:55:11.233Z,23.48
2023-03-15T06:57:20.156Z,26.85
2023-03-15T06:59:28.824Z,23.52
2023-03-15T07:01:41.676Z,22.73
2023-03-15T07:03:48.875Z,25.75
2023-03-15T07:05:55.695Z,23.35
2023-03-15T07:08:02.520Z,25.23
2023-03-15T07:10:09.755Z,25.15
2023-03-15T07:12:17.347Z,21.88
2023-03-15T07:14:24.016Z,24.60
2023-03-15T07:16:32.735Z,22.13
2023-03-15T07:18:39.559Z,24.63
2023-03-15T07:20:46.659Z,26.70
2023-03-15T07:22:53.920Z,22.33
2023-03-15T07:25:00.642Z,23.77
2023-03-15T07:27:07.823Z,23.55
2023-03-15T07:29:14.596Z,24.80
2023-03-15T07:31:21.418Z,24.02
2023-03-15T07:33:30.443Z,20.98
2023-03-15T07:35:37.510Z,24.55
2023-03-15T07:37:45.081Z,23.60
2023-03-15T07:39:51.988Z,22.92
2023-03-15T07:41:58.658Z,23.98
2023-03-15T07:44:11.570Z,23.52
2023-03-15T07:46:19.912Z,23.35
2023-03-15T07:48:30.302Z,25.08
2023-03-15T07:50:38.130Z,23.88
2023-03-15T07:52:45.058Z,25.55
2023-03-15T07:54:51.931Z,23.13
2023-03-15T07:56:58.706Z,22.88
2023-03-15T07:59:05.882Z,23.25
2023-03-15T08:01:13.269Z,23.23
2023-03-15T08:03:20.217Z,26.10
2023-03-15T08:05:29.232Z,24.73
2023-03-15T08:07:37.529Z,25.77
2023-03-15T08:09:44.453Z,25.77
2023-03-15T08:11:51.747Z,22.67
2023-03-15T08:13:58.410Z,25.75
2023-03-15T08:16:05.504Z,22.83
2023-03-15T08:18:12.330Z,23.27
2023-03-15T08:20:20.334Z,23.95
2023-03-15T08:22:28.724Z,27.15
2023-03-15T08:24:35.853Z,27.40
2023-03-15T08:26:44.238Z,21.83
2023-03-15T08:28:51.292Z,23.98
2023-03-15T08:30:57.961Z,24.63
2023-03-15T08:33:05.079Z,24.25
2023-03-15T08:35:15.612Z,23.63
2023-03-15T08:37:22.993Z,21.80
2023-03-15T08:39:31.348Z,24.88
2023-03-15T08:41:38.376Z,26.48
2023-03-15T08:43:45.147Z,23.35
2023-03-15T08:46:01.690Z,26.35
2023-03-15T08:48:09.031Z,24.23
2023-03-15T08:50:18.364Z,24.83
2023-03-15T08:52:25.338Z,22.25
2023-03-15T08:54:33.962Z,22.80
2023-03-15T08:56:40.685Z,26.30
2023-03-15T08:58:48.163Z,29.77
2023-03-15T09:00:55.139Z,26.55
2023-03-15T09:03:02.381Z,25.02
2023-03-15T09:05:12.051Z,22.95
2023-03-15T09:07:19.245Z,21.88
2023-03-15T09:09:26.016Z,23.17
2023-03-15T09:11:34.582Z,22.88
2023-03-15T09:13:41.252Z,24.95
2023-03-15T09:15:48.225Z,26.83
2023-03-15T09:17:55.418Z,25.05
2023-03-15T09:20:02.436Z,22.83
2023-03-15T09:22:16.522Z,25.70
2023-03-15T09:24:30.624Z,19.70
2023-03-15T09:26:39.113Z,25.40
2023-03-15T09:28:46.475Z,25.90
2023-03-15T09:30:53.234Z,27.15
2023-03-15T09:33:00.436Z,24.25
2023-03-15T09:35:07.979Z,22.33
2023-03-15T09:37:15.101Z,25.00
2023-03-15T09:39:22.590Z,22.75
2023-03-15T09:41:43.832Z,23.88
2023-03-15T09:44:13.616Z,22.57
2023-03-15T09:46:29.644Z,21.17
2023-03-15T09:48:41.039Z,20.98
2023-03-15T09:52:58.077Z,24.15
2023-03-15T09:55:09.697Z,27.05
2023-03-15T09:57:22.677Z,25.85
2023-03-15T09:59:34.612Z,28.33
2023-03-15T10:03:52.432Z,19.67
2023-03-15T10:06:03.781Z,25.25
2023-03-15T10:10:22.432Z,23.20
2023-03-15T10:12:34.647Z,27.45
2023-03-15T10:15:03.943Z,26.05
2023-03-15T10:17:14.764Z,30.90
2023-03-15T10:19:35.006Z,26.27
2023-03-15T10:21:52.175Z,31.38
2023-03-15T10:23:59.091Z,26.48
2023-03-15T10:26:11.681Z,28.23
2023-03-15T10:28:27.583Z,30.60
2023-03-15T10:30:36.048Z,30.17
2023-03-15T10:32:47.256Z,30.35
2023-03-15T10:34:58.344Z,27.58
2023-03-15T10:37:07.314Z,28.25
2023-03-15T10:39:15.649Z,34.95
2023-03-15T10:41:33.044Z,34.47
2023-03-15T10:43:42.632Z,33.72
2023-03-15T10:46:01.608Z,38.90
2023-03-15T10:48:08.975Z,33.42
2023-03-15T10:50:22.713Z,29.27
2023-03-15T10:52:36.237Z,32.63
2023-03-15T10:54:44.996Z,33.78
2023-03-15T10:56:53.934Z,32.50
2023-03-15T10:59:12.200Z,34.25
2023-03-15T11:01:28.938Z,35.22
2023-03-15T11:03:36.214Z,33.53
2023-03-15T11:05:45.699Z,33.83
2023-03-15T11:07:59.944Z,35.38
2023-03-15T11:10:23.870Z,34.78
2023-03-15T11:12:32.081Z,38.92
2023-03-15T11:14:42.748Z,40.75
2023-03-15T11:16:54.273Z,43.33
2023-03-15T11:19:04.627Z,39.00
2023-03-15T11:21:15.150Z,42.15
2023-03-15T11:23:26.841Z,36.97
2023-03-15T11:25:35.337Z,36.42
2023-03-15T11:27:42.163Z,41.28
2023-03-15T11:29:54.156Z,39.25
2023-03-15T11:32:03.334Z,32.33
2023-03-15T11:34:15.664Z,40.60
2023-03-15T11:36:25.740Z,42.60
2023-03-15T11:38:38.297Z,39.00
2023-03-15T11:40:49.070Z,44.35
2023-03-15T11:43:00.852Z,35.78
2023-03-15T11:45:17.555Z,32.45
2023-03-15T11:47:37.796Z,39.58
2023-03-15T11:49:52.093Z,40.58
2023-03-15T11:52:00.245Z,50.80
2023-03-15T11:54:14.544Z,38.85
2023-03-15T11:56:26.661Z,44.88
2023-03-15T11:58:36.385Z,45.22
2023-03-15T12:01:03.736Z,46.47
2023-03-15T12:03:42.192Z,43.08
2023-03-15T12:05:53.787Z,45.22
2023-03-15T12:10:37.387Z,50.90
2023-03-15T12:12:49.997Z,39.97
2023-03-15T12:15:07.126Z,42.58
2023-03-15T12:17:41.323Z,41.90
2023-03-15T12:19:48.303Z,37.05
2023-03-15T12:21:57.142Z,44.00
2023-03-15T12:24:06.810Z,37.85
2023-03-15T12:26:43.036Z,36.50
2023-03-15T12:28:55.940Z,36.20
2023-03-15T12:31:05.328Z,38.88
2023-03-15T12:33:19.275Z,38.15
2023-03-15T12:35:27.930Z,43.33
2023-03-15T12:37:46.531Z,32.42
2023-03-15T12:39:54.884Z,39.00
2023-03-15T12:42:02.734Z,37.67
2023-03-15T12:44:40.119Z,34.15
2023-03-15T12:47:01.348Z,39.28
2023-03-15T12:49:16.298Z,46.13
2023-03-15T12:51:47.385Z,40.55
2023-03-15T12:53:55.388Z,53.90
2023-03-15T12:56:18.910Z,47.72
2023-03-15T12:58:32.278Z,48.33
2023-03-15T13:00:42.123Z,51.45
2023-03-15T13:02:51.515Z,49.70
2023-03-15T13:05:28.898Z,46.60
2023-03-15T13:07:51.542Z,56.50
2023-03-15T13:10:25.042Z,65.82
2023-03-15T13:12:35.970Z,62.17
2023-03-15T13:14:47.134Z,57.60
2023-03-15T13:17:05.758Z,56.67
2023-03-15T13:19:23.904Z,48.40
2023-03-15T13:21:37.248Z,46.85
2023-03-15T13:23:52.940Z,44.83
2023-03-15T13:26:13.950Z,44.95
2023-03-15T13:28:25.521Z,48.05
2023-03-15T13:30:39.809Z,46.80
2023-03-15T13:32:47.487Z,46.08
2023-03-15T13:34:54.854Z,48.60
2023-03-15T13:37:03.822Z,44.63
2023-03-15T13:39:19.402Z,46.67
2023-03-15T13:41:28.385Z,58.33
2023-03-15T13:43:37.509Z,48.30
2023-03-15T13:45:46.258Z,51.35
2023-03-15T13:47:53.146Z,41.22
2023-03-15T13:50:00.480Z,41.47
2023-03-15T13:52:15.201Z,43.30
2023-03-15T13:54:24.214Z,44.97
2023-03-15T13:56:46.816Z,42.88
2023-03-15T13:58:55.474Z,39.65
2023-03-15T14:01:04.398Z,43.55
2023-03-15T14:03:16.211Z,47.63
2023-03-15T14:05:28.696Z,45.17
2023-03-15T14:07:40.797Z,42.88
2023-03-15T14:09:48.688Z,44.67
2023-03-15T14:12:06.469Z,40.22
2023-03-15T14:14:28.805Z,44.33
2023-03-15T14:18:52.335Z,40.78
2023-03-15T14:21:03.457Z,42.58
2023-03-15T14:23:16.070Z,41.40
2023-03-15T14:25:25.813Z,42.15
2023-03-15T14:27:32.991Z,47.92
2023-03-15T14:29:41.453Z,41.75
2023-03-15T14:31:52.338Z,44.25
2023-03-15T14:34:01.962Z,40.67
2023-03-15T14:36:12.180Z,42.80
2023-03-15T14:38:24.827Z,46.50
2023-03-15T14:40:36.415Z,41.80
2023-03-15T14:44:49.288Z,47.55
2023-03-15T14:46:56.526Z,44.03
2023-03-15T14:49:03.550Z,55.58
2023-03-15T14:51:15.902Z,50.38
2023-03-15T14:53:27.230Z,43.67
2023-03-15T14:57:42.881Z,50.17
2023-03-15T14:59:49.797Z,47.15
2023-03-15T15:01:59.567Z,51.47
2023-03-15T15:04:07.289Z,48.38
2023-03-15T15:06:15.947Z,49.90
2023-03-15T15:08:25.486Z,47.60
2023-03-15T15:10:32.418Z,49.40
2023-03-15T15:12:39.503Z,46.50
2023-03-15T15:14:46.570Z,43.65
2023-03-15T15:16:53.428Z,46.28
2023-03-15T15:19:00.124Z,48.97
2023-03-15T15:21:14.261Z,44.88
2023-03-15T15:23:25.698Z,46.88
2023-03-15T15:25:34.764Z,55.43
2023-03-15T15:27:41.849Z,48.63
2023-03-15T15:29:48.570Z,50.22
2023-03-15T15:31:55.600Z,43.17
2023-03-15T15:34:02.778Z,45.92
2023-03-15T15:36:14.859Z,45.28
2023-03-15T15:40:31.795Z,41.20
2023-03-15T15:42:38.718Z,43.13
2023-03-15T15:44:46.822Z,46.00
2023-03-15T15:46:53.490Z,42.70
2023-03-15T15:49:00.519Z,44.60
2023-03-15T15:51:16.561Z,47.17
2023-03-15T15:53:23.589Z,45.10
2023-03-15T15:55:35.530Z,45.00
2023-03-15T15:57:42.452Z,45.40
2023-03-15T15:59:49.126Z,51.45
2023-03-15T16:02:01.590Z,52.78
2023-03-15T16:04:09.120Z,52.67
2023-03-15T16:06:21.063Z,46.75
2023-03-15T16:08:29.113Z,41.55
2023-03-15T16:10:37.882Z,48.53
2023-03-15T16:12:44.603Z,47.88
2023-03-15T16:14:51.841Z,48.20
2023-03-15T16:16:58.761Z,46.33
2023-03-15T16:19:05.943Z,48.08
2023-03-15T16:21:20.805Z,49.75
2023-03-15T16:23:28.702Z,49.08
2023-03-15T16:25:39.061Z,47.17
2023-03-15T16:27:46.354Z,48.42
2023-03-15T16:29:56.039Z,49.20
2023-03-15T16:32:15.966Z,55.58
2023-03-15T16:34:25.963Z,45.40
2023-03-15T16:36:36.216Z,51.47
2023-03-15T16:38:42.936Z,46.05
2023-03-15T16:40:51.920Z,50.90
2023-03-15T16:42:59.555Z,49.75
2023-03-15T16:45:12.476Z,54.15
2023-03-15T16:47:19.141Z,46.95
2023-03-15T16:49:25.960Z,50.47
2023-03-15T16:51:32.886Z,51.72
2023-03-15T16:53:40.228Z,52.67
2023-03-15T16:55:46.892Z,50.50
2023-03-15T16:57:55.660Z,50.88
2023-03-15T17:00:04.735Z,52.65
2023-03-15T17:02:21.512Z,47.95
2023-03-15T17:04:28.417Z,53.13
2023-03-15T17:06:35.651Z,48.50
2023-03-15T17:08:42.373Z,50.00
2023-03-15T17:10:50.274Z,54.75
2023-03-15T17:12:59.766Z,59.13
2023-03-15T17:15:07.713Z,64.10
2023-03-15T17:17:14.531Z,51.58
2023-03-15T17:19:22.025Z,53.88
2023-03-15T17:21:30.072Z,50.90
2023-03-15T17:23:37.359Z,54.03
2023-03-15T17:25:44.384Z,54.72
2023-03-15T17:27:52.590Z,53.50
2023-03-15T17:30:01.664Z,56.30
2023-03-15T17:32:15.292Z,56.60
2023-03-15T17:34:23.561Z,56.70
2023-03-15T17:36:33.505Z,50.53
2023-03-15T17:38:43.295Z,51.80
2023-03-15T17:40:50.822Z,51.78
2023-03-15T17:42:58.733Z,59.08
2023-03-15T17:45:17.238Z,60.15
2023-03-15T17:47:23.847Z,52.72
2023-03-15T17:49:30.825Z,57.92
2023-03-15T17:51:39.591Z,58.50
2023-03-15T17:53:46.569Z,59.15
2023-03-15T17:55:54.674Z,61.75
2023-03-15T17:58:01.398Z,57.80
2023-03-15T18:00:13.341Z,58.33
2023-03-15T18:02:20.317Z,51.72
2023-03-15T18:04:27.600Z,58.17
2023-03-15T18:06:34.226Z,55.35
2023-03-15T18:08:41.196Z,63.38
2023-03-15T18:10:49.002Z,65.05
2023-03-15T18:12:55.919Z,68.38
2023-03-15T18:15:03.560Z,63.75
2023-03-15T18:17:12.790Z,60.47
2023-03-15T18:19:19.410Z,62.03
2023-03-15T18:21:27.922Z,69.78
2023-03-15T18:23:34.589Z,79.07
2023-03-15T18:25:41.923Z,65.45
2023-03-15T18:27:48.902Z,62.90
2023-03-15T18:29:56.419Z,73.53
2023-03-15T18:32:03.203Z,84.47
2023-03-15T18:34:16.640Z,78.13
2023-03-15T18:36:23.576Z,71.80
2023-03-15T18:38:30.987Z,73.78
2023-03-15T18:40:38.248Z,69.50
2023-03-15T18:42:45.326Z,73.45
2023-03-15T18:44:52.084Z,65.65
2023-03-15T18:46:59.222Z,66.93
2023-03-15T18:49:05.994Z,66.07
2023-03-15T18:51:15.891Z,71.47
2023-03-15T18:53:22.602Z,66.72
2023-03-15T18:55:29.838Z,66.40
2023-03-15T18:57:36.556Z,65.13
2023-03-15T18:59:43.228Z,67.95
2023-03-15T19:01:50.406Z,66.15
2023-03-15T19:03:58.119Z,65.07
2023-03-15T19:06:08.560Z,68.82
2023-03-15T19:08:17.126Z,68.60
2023-03-15T19:10:24.929Z,65.57
2023-03-15T19:12:31.845Z,72.72
2023-03-15T19:14:38.620Z,63.58
2023-03-15T19:16:45.819Z,60.25
2023-03-15T19:18:52.725Z,69.45
2023-03-15T19:20:59.890Z,66.78
2023-03-15T19:23:06.578Z,72.22
2023-03-15T19:25:16.015Z,75.38
2023-03-15T19:27:22.736Z,71.30
2023-03-15T19:29:30.530Z,62.30
2023-03-15T19:31:37.198Z,68.40
2023-03-15T19:33:44.227Z,71.90
2023-03-15T19:35:50.917Z,66.82
2023-03-15T19:37:58.134Z,65.75
2023-03-15T19:40:04.907Z,63.15
2023-03-15T19:42:13.518Z,59.67
2023-03-15T19:44:20.237Z,60.42
2023-03-15T19:46:27.223Z,67.50
2023-03-15T19:48:33.989Z,67.05
2023-03-15T19:50:40.967Z,63.15
2023-03-15T19:52:51.028Z,67.78
2023-03-15T19:54:58.040Z,63.47
2023-03-15T19:57:05.018Z,62.92
2023-03-15T19:59:13.739Z,65.55
2023-03-15T20:01:20.629Z,71.57
2023-03-15T20:03:28.252Z,74.13
2023-03-15T20:05:35.179Z,62.25
2023-03-15T20:07:43.511Z,64.45
2023-03-15T20:09:50.360Z,66.43
2023-03-15T20:11:57.544Z,53.25
2023-03-15T20:14:05.190Z,66.10
2023-03-15T20:16:14.407Z,66.05
2023-03-15T20:18:21.396Z,73.90
2023-03-15T20:20:28.780Z,73.75
2023-03-15T20:22:35.656Z,95.55
2023-03-15T20:24:45.202Z,87.50
2023-03-15T20:26:54.324Z,88.70
2023-03-15T20:29:01.201Z,81.03
2023-03-15T20:31:13.137Z,83.30
2023-03-15T20:33:19.971Z,92.47
2023-03-15T20:35:27.350Z,94.25
2023-03-15T20:37:36.015Z,92.53
2023-03-15T20:39:43.350Z,100.57
2023-03-15T20:41:50.232Z,92.35
2023-03-15T20:43:57.309Z,93.53
2023-03-15T20:46:05.512Z,83.45
2023-03-15T20:48:14.738Z,83.22
2023-03-15T20:50:22.092Z,77.22
2023-03-15T20:52:29.378Z,80.50
2023-03-15T20:54:37.817Z,80.07
2023-03-15T20:56:45.010Z,86.57
2023-03-15T20:58:52.297Z,82.05
2023-03-15T21:01:06.497Z,79.05
2023-03-15T21:03:15.907Z,76.30
2023-03-15T21:05:23.763Z,74.72
2023-03-15T21:07:30.686Z,79.57
2023-03-15T21:09:38.178Z,68.20
2023-03-15T21:11:45.368Z,70.78
2023-03-15T21:13:52.484Z,73.95
2023-03-15T21:16:00.045Z,69.65
2023-03-15T21:18:07.257Z,69.25
2023-03-15T21:20:16.702Z,72.97
2023-03-15T21:22:23.921Z,68.35
2023-03-15T21:24:43.236Z,72.43
2023-03-15T21:26:56.712Z,77.68
2023-03-15T21:29:03.688Z,68.28
2023-03-15T21:31:11.242Z,77.00
2023-03-15T21:33:18.050Z,72.63
2023-03-15T21:35:27.350Z,74.20
2023-03-15T21:37:34.207Z,74.07
2023-03-15T21:39:41.383Z,70.68
2023-03-15T21:41:48.269Z,69.97
2023-03-15T21:43:55.594Z,71.85
2023-03-15T21:46:03.789Z,65.82
2023-03-15T21:48:12.637Z,77.18
2023-03-15T21:50:21.278Z,74.80
2023-03-15T21:52:30.375Z,70.05
2023-03-15T21:54:37.235Z,69.65
2023-03-15T21:56:44.418Z,70.28
2023-03-15T21:58:51.345Z,80.97
2023-03-15T22:01:02.350Z,80.75
2023-03-15T22:03:09.551Z,82.07
2023-03-15T22:05:16.780Z,82.28
2023-03-15T22:07:23.757Z,78.20
2023-03-15T22:09:32.630Z,80.60
2023-03-15T22:11:39.606Z,73.15
2023-03-15T22:13:46.898Z,80.75
2023-03-15T22:15:54.378Z,70.60
2023-03-15T22:18:01.564Z,83.25
2023-03-15T22:20:13.826Z,104.95
2023-03-15T22:22:21.350Z,88.68
2023-03-15T22:24:28.275Z,89.07
2023-03-15T22:26:37.201Z,83.50
2023-03-15T22:28:44.124Z,89.00
2023-03-15T22:30:52.387Z,84.63
2023-03-15T22:32:59.340Z,84.60
2023-03-15T22:35:06.846Z,84.35
2023-03-15T22:37:14.246Z,82.93
2023-03-15T22:39:21.419Z,89.35
2023-03-15T22:41:28.806Z,79.00
2023-03-15T22:43:37.934Z,85.57
2023-03-15T22:45:44.756Z,90.20
2023-03-15T22:47:52.299Z,94.80
2023-03-15T22:50:00.659Z,102.10
2023-03-15T22:52:08.095Z,136.40
2023-03-15T22:54:15.020Z,147.25
2023-03-15T22:56:22.255Z,124.65
2023-03-15T22:58:29.490Z,105.65
2023-03-15T23:00:38.381Z,99.38
2023-03-15T23:02:45.898Z,95.32
2023-03-15T23:04:53.014Z,105.85
2023-03-15T23:06:59.856Z,148.20
2023-03-15T23:09:07.089Z,167.60
2023-03-15T23:11:13.911Z,173.35
2023-03-15T23:13:21.308Z,172.50
2023-03-15T23:15:28.640Z,158.32
2023-03-15T23:17:37.812Z,140.68
2023-03-15T23:19:44.687Z,121.53
2023-03-15T23:21:51.920Z,94.25
2023-03-15T23:23:58.691Z,83.88
2023-03-15T23:26:06.059Z,83.88
2023-03-15T23:28:13.054Z,89.65
2023-03-15T23:30:20.496Z,82.25
2023-03-15T23:32:27.675Z,82.72
2023-03-15T23:34:43.509Z,80.28
2023-03-15T23:36:50.283Z,78.18
2023-03-15T23:38:57.471Z,78.05
2023-03-15T23:41:05.979Z,71.75
2023-03-15T23:43:13.421Z,73.40
2023-03-15T23:45:20.394Z,73.85
2023-03-15T23:47:28.599Z,78.93
2023-03-15T23:49:37.428Z,75.13
2023-03-15T23:51:44.909Z,70.78
2023-03-15T23:53:51.787Z,71.30
2023-03-15T23:55:59.429Z,75.18
2023-03-15T23:58:07.785Z,69.60
